Terminal Aerodrome Forecast
Issued by NWS

Home | Current Version | Previous Version | Text Only | Print | Product List | Glossary Off
Versions: 1 2 3 4 5 6 7 8 9 10 11 12 13 14 15 16 17 18 19 20 21 22 23 24 25 26 27

000
FTUS42 KMHX 121700
TAFPGV
TAF
KPGV 121729Z 1218/1318 VRB05KT P6SM SCT035
     FM130800 VRB03KT 4SM BR SKC
     FM131300 22005KT P6SM SKC
      AMD LTD TO CLD VIS AND WIND=

USA.gov is the U.S. government's official web portal to all federal, state and local government web resources and services.